Edwards, Missouri
Current Conditions -  °F | °C
As of 10:15 AM on Sunday 25 Jan 2015 (Local Time) from KH21 Reporting Station
Moderate Rain Moderate Rain  
Wind Chill: 34°   Ceiling: 1500
Heat Index: 43°   Visibility: 5mi
Dew Point: 39°   Wind: 20mph
Humidity: 87%   Direction: 280°W
Pressure: 29.67"   Gusts: 28mph
Location:  38.14°N, 93.17°W
Report Text: KH21 251615Z AUTO 28017G24KT 5SM RA OVC015 06/04 A2967 RMK AO2
Loading
Personal Weather Stations






























Interactive Weather Map New forecast layout! Learn more

10-Day Weather Forecast

Advertisements
Track Severe Weather on mobile